sensor_id;sensor_type;location;lat;lon;timestamp;P1;durP1;ratioP1;P2;durP2;ratioP2
57778;SDS011;43608;49.486;9.640;2022-10-29T00:00:27;4.00;;;2.58;;
57778;SDS011;43608;49.486;9.640;2022-10-29T00:00:57;5.50;;;2.65;;
57778;SDS011;43608;49.486;9.640;2022-10-29T00:01:27;3.30;;;2.30;;
57778;SDS011;43608;49.486;9.640;2022-10-29T00:01:58;4.15;;;2.40;;
57778;SDS011;43608;49.486;9.640;2022-10-29T00:02:28;3.35;;;2.45;;
57778;SDS011;43608;49.486;9.640;2022-10-29T00:02:58;3.90;;;2.40;;
57778;SDS011;43608;49.486;9.640;2022-10-29T00:03:29;3.72;;;2.40;;
57778;SDS011;43608;49.486;9.640;2022-10-29T00:03:59;3.63;;;2.42;;
57778;SDS011;43608;49.486;9.640;2022-10-29T00:04:30;3.65;;;2.35;;
57778;SDS011;43608;49.486;9.640;2022-10-29T00:05:00;3.67;;;2.58;;
57778;SDS011;43608;49.486;9.640;2022-10-29T00:05:31;4.03;;;2.38;;
57778;SDS011;43608;49.486;9.640;2022-10-29T00:06:05;3.90;;;2.40;;
57778;SDS011;43608;49.486;9.640;2022-10-29T00:06:38;2.97;;;2.13;;
57778;SDS011;43608;49.486;9.640;2022-10-29T00:07:09;3.08;;;2.30;;
57778;SDS011;43608;49.486;9.640;2022-10-29T00:07:39;3.50;;;2.30;;
57778;SDS011;43608;49.486;9.640;2022-10-29T00:08:10;4.00;;;2.50;;
57778;SDS011;43608;49.486;9.640;2022-10-29T00:08:40;3.85;;;2.40;;
57778;SDS011;43608;49.486;9.640;2022-10-29T00:09:11;3.20;;;2.50;;
57778;SDS011;43608;49.486;9.640;2022-10-29T00:09:41;5.10;;;2.70;;
57778;SDS011;43608;49.486;9.640;2022-10-29T00:10:12;4.63;;;2.78;;
57778;SDS011;43608;49.486;9.640;2022-10-29T00:10:42;3.90;;;2.35;;
57778;SDS011;43608;49.486;9.640;2022-10-29T00:11:18;3.67;;;2.30;;
57778;SDS011;43608;49.486;9.640;2022-10-29T00:11:49;4.53;;;2.80;;
57778;SDS011;43608;49.486;9.640;2022-10-29T00:12:19;3.90;;;2.28;;
57778;SDS011;43608;49.486;9.640;2022-10-29T00:12:50;4.15;;;2.70;;
57778;SDS011;43608;49.486;9.640;2022-10-29T00:13:20;3.17;;;2.22;;
57778;SDS011;43608;49.486;9.640;2022-10-29T00:13:52;3.22;;;2.22;;
57778;SDS011;43608;49.486;9.640;2022-10-29T00:14:26;3.65;;;2.40;;
57778;SDS011;43608;49.486;9.640;2022-10-29T00:14:56;2.72;;;2.15;;
57778;SDS011;43608;49.486;9.640;2022-10-29T00:15:27;3.10;;;2.30;;
57778;SDS011;43608;49.486;9.640;2022-10-29T00:15:57;3.58;;;2.15;;
57778;SDS011;43608;49.486;9.640;2022-10-29T00:16:28;3.10;;;2.30;;
57778;SDS011;43608;49.486;9.640;2022-10-29T00:17:03;3.45;;;2.13;;
57778;SDS011;43608;49.486;9.640;2022-10-29T00:17:34;3.90;;;2.40;;
57778;SDS011;43608;49.486;9.640;2022-10-29T00:18:04;3.03;;;2.25;;
57778;SDS011;43608;49.486;9.640;2022-10-29T00:18:35;3.42;;;2.30;;
57778;SDS011;43608;49.486;9.640;2022-10-29T00:19:05;2.53;;;2.00;;
57778;SDS011;43608;49.486;9.640;2022-10-29T00:19:36;3.83;;;2.08;;
57778;SDS011;43608;49.486;9.640;2022-10-29T00:20:06;3.33;;;2.20;;
57778;SDS011;43608;49.486;9.640;2022-10-29T00:20:37;3.25;;;2.22;;
57778;SDS011;43608;49.486;9.640;2022-10-29T00:21:10;4.00;;;2.03;;
57778;SDS011;43608;49.486;9.640;2022-10-29T00:21:45;3.28;;;2.17;;
57778;SDS011;43608;49.486;9.640;2022-10-29T00:22:15;4.20;;;2.50;;
57778;SDS011;43608;49.486;9.640;2022-10-29T00:22:46;2.63;;;2.05;;
57778;SDS011;43608;49.486;9.640;2022-10-29T00:23:16;3.67;;;2.10;;
57778;SDS011;43608;49.486;9.640;2022-10-29T00:23:47;4.38;;;2.40;;
57778;SDS011;43608;49.486;9.640;2022-10-29T00:24:17;3.38;;;2.30;;
57778;SDS011;43608;49.486;9.640;2022-10-29T00:24:48;3.95;;;2.40;;
57778;SDS011;43608;49.486;9.640;2022-10-29T00:25:18;3.10;;;2.20;;
57778;SDS011;43608;49.486;9.640;2022-10-29T00:25:48;3.70;;;2.40;;
57778;SDS011;43608;49.486;9.640;2022-10-29T00:26:20;3.20;;;2.30;;
57778;SDS011;43608;49.486;9.640;2022-10-29T00:26:50;4.32;;;2.28;;
57778;SDS011;43608;49.486;9.640;2022-10-29T00:27:21;3.35;;;2.20;;
57778;SDS011;43608;49.486;9.640;2022-10-29T00:27:51;3.92;;;2.30;;
57778;SDS011;43608;49.486;9.640;2022-10-29T00:28:21;4.32;;;2.42;;
57778;SDS011;43608;49.486;9.640;2022-10-29T00:28:52;4.55;;;2.50;;
57778;SDS011;43608;49.486;9.640;2022-10-29T00:29:24;3.75;;;2.40;;
57778;SDS011;43608;49.486;9.640;2022-10-29T00:29:55;4.93;;;2.42;;
57778;SDS011;43608;49.486;9.640;2022-10-29T00:30:25;2.97;;;2.10;;
57778;SDS011;43608;49.486;9.640;2022-10-29T00:30:56;3.88;;;2.30;;
57778;SDS011;43608;49.486;9.640;2022-10-29T00:31:30;3.67;;;2.20;;
57778;SDS011;43608;49.486;9.640;2022-10-29T00:32:01;3.78;;;2.15;;
57778;SDS011;43608;49.486;9.640;2022-10-29T00:32:31;4.13;;;2.40;;
57778;SDS011;43608;49.486;9.640;2022-10-29T00:33:01;4.57;;;2.30;;
57778;SDS011;43608;49.486;9.640;2022-10-29T00:33:32;3.40;;;2.20;;
57778;SDS011;43608;49.486;9.640;2022-10-29T00:34:03;3.70;;;2.10;;
57778;SDS011;43608;49.486;9.640;2022-10-29T00:34:33;3.70;;;2.10;;
57778;SDS011;43608;49.486;9.640;2022-10-29T00:35:03;4.28;;;2.30;;
57778;SDS011;43608;49.486;9.640;2022-10-29T00:35:34;3.83;;;2.30;;
57778;SDS011;43608;49.486;9.640;2022-10-29T00:36:05;3.28;;;2.15;;
57778;SDS011;43608;49.486;9.640;2022-10-29T00:36:40;4.03;;;2.35;;
57778;SDS011;43608;49.486;9.640;2022-10-29T00:37:11;4.15;;;2.30;;
57778;SDS011;43608;49.486;9.640;2022-10-29T00:37:41;3.45;;;2.17;;
57778;SDS011;43608;49.486;9.640;2022-10-29T00:38:11;3.00;;;2.08;;
57778;SDS011;43608;49.486;9.640;2022-10-29T00:38:42;3.17;;;2.10;;
57778;SDS011;43608;49.486;9.640;2022-10-29T00:39:15;2.60;;;2.10;;
57778;SDS011;43608;49.486;9.640;2022-10-29T00:39:46;3.28;;;2.30;;
57778;SDS011;43608;49.486;9.640;2022-10-29T00:40:16;4.55;;;2.22;;
57778;SDS011;43608;49.486;9.640;2022-10-29T00:40:47;3.30;;;2.10;;
57778;SDS011;43608;49.486;9.640;2022-10-29T00:41:20;2.85;;;2.00;;
57778;SDS011;43608;49.486;9.640;2022-10-29T00:41:52;3.05;;;2.10;;
57778;SDS011;43608;49.486;9.640;2022-10-29T00:42:23;3.85;;;2.15;;
57778;SDS011;43608;49.486;9.640;2022-10-29T00:43:09;3.17;;;2.00;;
57778;SDS011;43608;49.486;9.640;2022-10-29T00:43:43;2.95;;;2.00;;
57778;SDS011;43608;49.486;9.640;2022-10-29T00:45:04;3.33;;;2.30;;
57778;SDS011;43608;49.486;9.640;2022-10-29T00:45:35;3.13;;;2.20;;
57778;SDS011;43608;49.486;9.640;2022-10-29T00:46:10;3.63;;;2.50;;
57778;SDS011;43608;49.486;9.640;2022-10-29T00:46:45;2.70;;;2.10;;
57778;SDS011;43608;49.486;9.640;2022-10-29T00:47:23;2.45;;;2.00;;
57778;SDS011;43608;49.486;9.640;2022-10-29T00:47:57;4.82;;;2.50;;
57778;SDS011;43608;49.486;9.640;2022-10-29T00:48:28;3.25;;;2.30;;
57778;SDS011;43608;49.486;9.640;2022-10-29T00:49:03;3.50;;;2.28;;
57778;SDS011;43608;49.486;9.640;2022-10-29T00:49:34;2.83;;;2.03;;
57778;SDS011;43608;49.486;9.640;2022-10-29T00:50:07;4.13;;;2.13;;
57778;SDS011;43608;49.486;9.640;2022-10-29T00:50:42;3.97;;;2.17;;
57778;SDS011;43608;49.486;9.640;2022-10-29T00:51:15;3.38;;;2.30;;
57778;SDS011;43608;49.486;9.640;2022-10-29T00:51:46;4.13;;;2.10;;
57778;SDS011;43608;49.486;9.640;2022-10-29T00:52:17;3.35;;;2.17;;
57778;SDS011;43608;49.486;9.640;2022-10-29T00:52:51;2.75;;;2.20;;
57778;SDS011;43608;49.486;9.640;2022-10-29T00:53:24;4.60;;;2.30;;
57778;SDS011;43608;49.486;9.640;2022-10-29T00:54:05;4.00;;;2.13;;
57778;SDS011;43608;49.486;9.640;2022-10-29T00:55:09;3.47;;;2.00;;
57778;SDS011;43608;49.486;9.640;2022-10-29T00:55:44;3.83;;;2.10;;
57778;SDS011;43608;49.486;9.640;2022-10-29T00:56:15;3.17;;;2.22;;
57778;SDS011;43608;49.486;9.640;2022-10-29T00:56:46;3.75;;;2.30;;
57778;SDS011;43608;49.486;9.640;2022-10-29T00:57:22;3.17;;;2.22;;
57778;SDS011;43608;49.486;9.640;2022-10-29T00:57:58;5.30;;;2.42;;
57778;SDS011;43608;49.486;9.640;2022-10-29T00:58:30;2.65;;;2.03;;
57778;SDS011;43608;49.486;9.640;2022-10-29T00:59:00;3.08;;;2.10;;
57778;SDS011;43608;49.486;9.640;2022-10-29T00:59:31;3.25;;;2.20;;
57778;SDS011;43608;49.486;9.640;2022-10-29T01:00:02;3.25;;;2.20;;
57778;SDS011;43608;49.486;9.640;2022-10-29T01:00:33;3.08;;;2.20;;
57778;SDS011;43608;49.486;9.640;2022-10-29T01:01:04;4.20;;;2.20;;
57778;SDS011;43608;49.486;9.640;2022-10-29T01:01:34;3.33;;;2.20;;
57778;SDS011;43608;49.486;9.640;2022-10-29T01:02:06;3.15;;;2.17;;
57778;SDS011;43608;49.486;9.640;2022-10-29T01:02:37;2.97;;;1.98;;
57778;SDS011;43608;49.486;9.640;2022-10-29T01:03:07;2.97;;;2.10;;
57778;SDS011;43608;49.486;9.640;2022-10-29T01:03:38;3.05;;;2.00;;
57778;SDS011;43608;49.486;9.640;2022-10-29T01:04:08;3.20;;;2.20;;
57778;SDS011;43608;49.486;9.640;2022-10-29T01:04:40;2.85;;;2.08;;
57778;SDS011;43608;49.486;9.640;2022-10-29T01:05:16;2.75;;;1.90;;
57778;SDS011;43608;49.486;9.640;2022-10-29T01:05:49;2.25;;;1.80;;
57778;SDS011;43608;49.486;9.640;2022-10-29T01:06:22;3.38;;;2.00;;
57778;SDS011;43608;49.486;9.640;2022-10-29T01:06:53;2.78;;;2.10;;
57778;SDS011;43608;49.486;9.640;2022-10-29T01:07:24;2.85;;;2.13;;
57778;SDS011;43608;49.486;9.640;2022-10-29T01:07:55;3.55;;;2.28;;
57778;SDS011;43608;49.486;9.640;2022-10-29T01:08:25;2.60;;;1.88;;
57778;SDS011;43608;49.486;9.640;2022-10-29T01:08:56;3.13;;;1.95;;
57778;SDS011;43608;49.486;9.640;2022-10-29T01:09:26;3.05;;;2.10;;
57778;SDS011;43608;49.486;9.640;2022-10-29T01:09:56;3.42;;;1.83;;
57778;SDS011;43608;49.486;9.640;2022-10-29T01:10:31;2.47;;;1.98;;
57778;SDS011;43608;49.486;9.640;2022-10-29T01:11:11;2.78;;;1.90;;
57778;SDS011;43608;49.486;9.640;2022-10-29T01:13:29;2.50;;;2.00;;
57778;SDS011;43608;49.486;9.640;2022-10-29T01:14:35;2.53;;;1.88;;
57778;SDS011;43608;49.486;9.640;2022-10-29T01:17:53;3.03;;;2.08;;
57778;SDS011;43608;49.486;9.640;2022-10-29T01:19:14;3.30;;;2.10;;
57778;SDS011;43608;49.486;9.640;2022-10-29T01:21:44;3.28;;;2.10;;
57778;SDS011;43608;49.486;9.640;2022-10-29T01:22:26;2.78;;;2.00;;
57778;SDS011;43608;49.486;9.640;2022-10-29T01:23:13;2.90;;;1.90;;
57778;SDS011;43608;49.486;9.640;2022-10-29T01:25:30;2.97;;;2.08;;
57778;SDS011;43608;49.486;9.640;2022-10-29T01:31:27;2.25;;;1.88;;
57778;SDS011;43608;49.486;9.640;2022-10-29T01:33:31;2.72;;;2.03;;
57778;SDS011;43608;49.486;9.640;2022-10-29T01:35:39;3.20;;;2.17;;
57778;SDS011;43608;49.486;9.640;2022-10-29T01:36:18;3.53;;;2.20;;
57778;SDS011;43608;49.486;9.640;2022-10-29T01:36:57;4.07;;;2.38;;
57778;SDS011;43608;49.486;9.640;2022-10-29T01:39:17;2.83;;;2.00;;
57778;SDS011;43608;49.486;9.640;2022-10-29T01:40:31;3.90;;;2.20;;
57778;SDS011;43608;49.486;9.640;2022-10-29T01:43:11;2.95;;;2.17;;
57778;SDS011;43608;49.486;9.640;2022-10-29T01:43:48;2.80;;;1.90;;
57778;SDS011;43608;49.486;9.640;2022-10-29T01:45:33;3.50;;;1.95;;
57778;SDS011;43608;49.486;9.640;2022-10-29T01:46:11;2.95;;;2.05;;
57778;SDS011;43608;49.486;9.640;2022-10-29T01:46:46;2.65;;;2.00;;
57778;SDS011;43608;49.486;9.640;2022-10-29T01:47:23;3.08;;;2.10;;
57778;SDS011;43608;49.486;9.640;2022-10-29T01:48:03;4.55;;;2.20;;
57778;SDS011;43608;49.486;9.640;2022-10-29T01:48:38;4.13;;;2.10;;
57778;SDS011;43608;49.486;9.640;2022-10-29T01:49:16;2.92;;;2.05;;
57778;SDS011;43608;49.486;9.640;2022-10-29T01:49:52;3.28;;;1.90;;
57778;SDS011;43608;49.486;9.640;2022-10-29T01:50:26;3.38;;;2.17;;
57778;SDS011;43608;49.486;9.640;2022-10-29T01:50:58;2.78;;;2.00;;
57778;SDS011;43608;49.486;9.640;2022-10-29T01:51:32;3.28;;;2.05;;
57778;SDS011;43608;49.486;9.640;2022-10-29T01:52:06;3.00;;;1.85;;
57778;SDS011;43608;49.486;9.640;2022-10-29T01:52:40;2.72;;;2.00;;
57778;SDS011;43608;49.486;9.640;2022-10-29T01:53:11;3.17;;;1.90;;
57778;SDS011;43608;49.486;9.640;2022-10-29T01:53:42;3.08;;;2.05;;
57778;SDS011;43608;49.486;9.640;2022-10-29T01:54:12;3.30;;;2.08;;
57778;SDS011;43608;49.486;9.640;2022-10-29T01:54:43;4.18;;;2.20;;
57778;SDS011;43608;49.486;9.640;2022-10-29T01:55:18;2.30;;;1.90;;
57778;SDS011;43608;49.486;9.640;2022-10-29T01:55:50;2.65;;;1.90;;
57778;SDS011;43608;49.486;9.640;2022-10-29T01:56:20;2.25;;;1.80;;
57778;SDS011;43608;49.486;9.640;2022-10-29T01:56:52;2.70;;;1.95;;
57778;SDS011;43608;49.486;9.640;2022-10-29T01:57:58;2.55;;;2.00;;
57778;SDS011;43608;49.486;9.640;2022-10-29T01:58:29;2.25;;;1.88;;
57778;SDS011;43608;49.486;9.640;2022-10-29T01:59:00;2.58;;;1.80;;
57778;SDS011;43608;49.486;9.640;2022-10-29T01:59:35;2.92;;;2.00;;
57778;SDS011;43608;49.486;9.640;2022-10-29T02:00:07;2.38;;;1.85;;
57778;SDS011;43608;49.486;9.640;2022-10-29T02:02:18;2.25;;;1.90;;
57778;SDS011;43608;49.486;9.640;2022-10-29T02:06:58;2.95;;;2.00;;
57778;SDS011;43608;49.486;9.640;2022-10-29T02:07:43;2.65;;;1.90;;
57778;SDS011;43608;49.486;9.640;2022-10-29T02:09:21;2.58;;;1.80;;
57778;SDS011;43608;49.486;9.640;2022-10-29T02:11:13;3.70;;;2.00;;
57778;SDS011;43608;49.486;9.640;2022-10-29T02:12:28;3.30;;;2.03;;
57778;SDS011;43608;49.486;9.640;2022-10-29T02:13:02;2.78;;;1.95;;
57778;SDS011;43608;49.486;9.640;2022-10-29T02:13:36;4.47;;;2.13;;
57778;SDS011;43608;49.486;9.640;2022-10-29T02:14:19;4.03;;;2.30;;
57778;SDS011;43608;49.486;9.640;2022-10-29T02:15:13;3.10;;;2.10;;
57778;SDS011;43608;49.486;9.640;2022-10-29T02:15:49;3.65;;;2.30;;
57778;SDS011;43608;49.486;9.640;2022-10-29T02:16:21;7.13;;;2.35;;
57778;SDS011;43608;49.486;9.640;2022-10-29T02:16:54;3.13;;;2.22;;
57778;SDS011;43608;49.486;9.640;2022-10-29T02:17:25;3.15;;;2.10;;
57778;SDS011;43608;49.486;9.640;2022-10-29T02:18:00;2.63;;;2.00;;
57778;SDS011;43608;49.486;9.640;2022-10-29T02:18:39;2.95;;;2.08;;
57778;SDS011;43608;49.486;9.640;2022-10-29T02:19:11;2.63;;;1.88;;
57778;SDS011;43608;49.486;9.640;2022-10-29T02:19:41;3.70;;;2.30;;
57778;SDS011;43608;49.486;9.640;2022-10-29T02:20:12;3.92;;;2.28;;
57778;SDS011;43608;49.486;9.640;2022-10-29T02:20:44;3.65;;;1.98;;
57778;SDS011;43608;49.486;9.640;2022-10-29T02:21:16;3.28;;;1.90;;
57778;SDS011;43608;49.486;9.640;2022-10-29T02:21:49;3.00;;;1.85;;
57778;SDS011;43608;49.486;9.640;2022-10-29T02:22:19;3.17;;;2.10;;
57778;SDS011;43608;49.486;9.640;2022-10-29T02:22:50;3.20;;;1.88;;
57778;SDS011;43608;49.486;9.640;2022-10-29T02:23:20;3.13;;;1.80;;
57778;SDS011;43608;49.486;9.640;2022-10-29T02:23:51;2.85;;;2.00;;
57778;SDS011;43608;49.486;9.640;2022-10-29T02:24:21;2.65;;;1.83;;
57778;SDS011;43608;49.486;9.640;2022-10-29T02:24:53;2.90;;;2.00;;
57778;SDS011;43608;49.486;9.640;2022-10-29T02:25:24;2.15;;;1.90;;
57778;SDS011;43608;49.486;9.640;2022-10-29T02:25:54;3.25;;;2.00;;
57778;SDS011;43608;49.486;9.640;2022-10-29T02:26:24;2.78;;;1.95;;
57778;SDS011;43608;49.486;9.640;2022-10-29T02:26:55;2.50;;;2.00;;
57778;SDS011;43608;49.486;9.640;2022-10-29T02:27:25;2.45;;;1.95;;
57778;SDS011;43608;49.486;9.640;2022-10-29T02:27:56;3.00;;;1.98;;
57778;SDS011;43608;49.486;9.640;2022-10-29T02:28:26;3.17;;;2.00;;
57778;SDS011;43608;49.486;9.640;2022-10-29T02:28:57;3.40;;;1.90;;
57778;SDS011;43608;49.486;9.640;2022-10-29T02:29:28;2.38;;;1.70;;
57778;SDS011;43608;49.486;9.640;2022-10-29T02:29:58;2.95;;;1.90;;
57778;SDS011;43608;49.486;9.640;2022-10-29T02:30:28;2.63;;;1.70;;
57778;SDS011;43608;49.486;9.640;2022-10-29T02:30:59;2.50;;;1.80;;
57778;SDS011;43608;49.486;9.640;2022-10-29T02:31:29;2.58;;;1.70;;
57778;SDS011;43608;49.486;9.640;2022-10-29T02:31:59;2.30;;;1.80;;
57778;SDS011;43608;49.486;9.640;2022-10-29T02:32:30;1.98;;;1.80;;
57778;SDS011;43608;49.486;9.640;2022-10-29T02:33:01;3.95;;;1.90;;
57778;SDS011;43608;49.486;9.640;2022-10-29T02:33:32;1.98;;;1.75;;
57778;SDS011;43608;49.486;9.640;2022-10-29T02:34:02;2.60;;;1.88;;
57778;SDS011;43608;49.486;9.640;2022-10-29T02:34:33;2.20;;;1.70;;
57778;SDS011;43608;49.486;9.640;2022-10-29T02:35:03;2.95;;;1.60;;
57778;SDS011;43608;49.486;9.640;2022-10-29T02:35:34;2.65;;;1.80;;
57778;SDS011;43608;49.486;9.640;2022-10-29T02:36:04;2.50;;;1.83;;
57778;SDS011;43608;49.486;9.640;2022-10-29T02:36:35;3.20;;;2.00;;
57778;SDS011;43608;49.486;9.640;2022-10-29T02:37:06;2.35;;;1.80;;
57778;SDS011;43608;49.486;9.640;2022-10-29T02:37:36;2.45;;;1.85;;
57778;SDS011;43608;49.486;9.640;2022-10-29T02:38:07;2.15;;;1.80;;
57778;SDS011;43608;49.486;9.640;2022-10-29T02:38:37;2.83;;;1.80;;
57778;SDS011;43608;49.486;9.640;2022-10-29T02:39:07;2.20;;;1.90;;
57778;SDS011;43608;49.486;9.640;2022-10-29T02:39:38;2.78;;;1.80;;
57778;SDS011;43608;49.486;9.640;2022-10-29T02:40:08;2.28;;;1.70;;
57778;SDS011;43608;49.486;9.640;2022-10-29T02:40:39;3.58;;;2.05;;
57778;SDS011;43608;49.486;9.640;2022-10-29T02:41:09;2.42;;;1.73;;
57778;SDS011;43608;49.486;9.640;2022-10-29T02:41:40;2.17;;;1.67;;
57778;SDS011;43608;49.486;9.640;2022-10-29T02:42:10;2.58;;;1.80;;
57778;SDS011;43608;49.486;9.640;2022-10-29T02:42:40;2.47;;;1.65;;
57778;SDS011;43608;49.486;9.640;2022-10-29T02:43:11;2.17;;;1.80;;
57778;SDS011;43608;49.486;9.640;2022-10-29T02:43:41;2.28;;;1.80;;
57778;SDS011;43608;49.486;9.640;2022-10-29T02:44:11;2.90;;;1.80;;
57778;SDS011;43608;49.486;9.640;2022-10-29T02:44:42;2.22;;;1.90;;
57778;SDS011;43608;49.486;9.640;2022-10-29T02:45:12;1.92;;;1.70;;
57778;SDS011;43608;49.486;9.640;2022-10-29T02:45:43;2.15;;;1.92;;
57778;SDS011;43608;49.486;9.640;2022-10-29T02:46:15;2.72;;;1.77;;
57778;SDS011;43608;49.486;9.640;2022-10-29T02:46:47;2.17;;;1.70;;
57778;SDS011;43608;49.486;9.640;2022-10-29T02:47:17;2.88;;;1.80;;
57778;SDS011;43608;49.486;9.640;2022-10-29T02:47:48;2.60;;;1.77;;
57778;SDS011;43608;49.486;9.640;2022-10-29T02:48:18;2.33;;;1.83;;
57778;SDS011;43608;49.486;9.640;2022-10-29T02:48:49;2.25;;;1.80;;
57778;SDS011;43608;49.486;9.640;2022-10-29T02:49:19;2.47;;;1.90;;
57778;SDS011;43608;49.486;9.640;2022-10-29T02:49:52;3.08;;;1.85;;
57778;SDS011;43608;49.486;9.640;2022-10-29T02:50:22;2.17;;;1.77;;
57778;SDS011;43608;49.486;9.640;2022-10-29T02:50:53;2.28;;;1.88;;
57778;SDS011;43608;49.486;9.640;2022-10-29T02:51:23;2.53;;;1.95;;
57778;SDS011;43608;49.486;9.640;2022-10-29T02:51:53;2.60;;;1.85;;
57778;SDS011;43608;49.486;9.640;2022-10-29T02:52:24;3.72;;;1.92;;
57778;SDS011;43608;49.486;9.640;2022-10-29T02:52:54;4.07;;;1.92;;
57778;SDS011;43608;49.486;9.640;2022-10-29T02:53:24;3.10;;;2.00;;
57778;SDS011;43608;49.486;9.640;2022-10-29T02:53:55;2.00;;;1.80;;
57778;SDS011;43608;49.486;9.640;2022-10-29T02:54:25;2.72;;;1.90;;
57778;SDS011;43608;49.486;9.640;2022-10-29T02:54:56;1.67;;;1.58;;
57778;SDS011;43608;49.486;9.640;2022-10-29T02:55:26;2.47;;;1.80;;
57778;SDS011;43608;49.486;9.640;2022-10-29T02:55:56;2.40;;;1.80;;
57778;SDS011;43608;49.486;9.640;2022-10-29T02:56:27;2.08;;;1.80;;
57778;SDS011;43608;49.486;9.640;2022-10-29T02:56:57;2.83;;;2.00;;
57778;SDS011;43608;49.486;9.640;2022-10-29T02:57:28;2.72;;;1.88;;
57778;SDS011;43608;49.486;9.640;2022-10-29T02:57:58;3.25;;;2.00;;
57778;SDS011;43608;49.486;9.640;2022-10-29T02:58:29;2.10;;;1.90;;
57778;SDS011;43608;49.486;9.640;2022-10-29T02:58:59;3.05;;;1.95;;
57778;SDS011;43608;49.486;9.640;2022-10-29T02:59:29;2.50;;;1.90;;
57778;SDS011;43608;49.486;9.640;2022-10-29T03:00:00;4.50;;;1.75;;
57778;SDS011;43608;49.486;9.640;2022-10-29T03:00:30;2.25;;;1.88;;
57778;SDS011;43608;49.486;9.640;2022-10-29T03:01:01;2.80;;;1.90;;
57778;SDS011;43608;49.486;9.640;2022-10-29T03:01:32;2.05;;;1.75;;
57778;SDS011;43608;49.486;9.640;2022-10-29T03:02:02;2.30;;;1.80;;
57778;SDS011;43608;49.486;9.640;2022-10-29T03:02:32;2.30;;;1.83;;
57778;SDS011;43608;49.486;9.640;2022-10-29T03:03:03;2.55;;;1.80;;
57778;SDS011;43608;49.486;9.640;2022-10-29T03:03:33;4.45;;;1.90;;
57778;SDS011;43608;49.486;9.640;2022-10-29T03:04:04;2.42;;;1.80;;
57778;SDS011;43608;49.486;9.640;2022-10-29T03:04:34;2.00;;;1.80;;
57778;SDS011;43608;49.486;9.640;2022-10-29T03:05:05;2.55;;;1.67;;
57778;SDS011;43608;49.486;9.640;2022-10-29T03:05:36;3.72;;;1.92;;
57778;SDS011;43608;49.486;9.640;2022-10-29T03:06:13;2.40;;;1.70;;
57778;SDS011;43608;49.486;9.640;2022-10-29T03:06:45;2.33;;;1.75;;
57778;SDS011;43608;49.486;9.640;2022-10-29T03:07:15;2.08;;;1.75;;
57778;SDS011;43608;49.486;9.640;2022-10-29T03:07:46;1.90;;;1.70;;
57778;SDS011;43608;49.486;9.640;2022-10-29T03:08:16;3.05;;;1.70;;
57778;SDS011;43608;49.486;9.640;2022-10-29T03:08:47;2.92;;;1.73;;
57778;SDS011;43608;49.486;9.640;2022-10-29T03:09:17;2.85;;;1.83;;
57778;SDS011;43608;49.486;9.640;2022-10-29T03:09:47;1.70;;;1.58;;
57778;SDS011;43608;49.486;9.640;2022-10-29T03:10:18;2.20;;;1.60;;
57778;SDS011;43608;49.486;9.640;2022-10-29T03:10:48;3.20;;;1.70;;
57778;SDS011;43608;49.486;9.640;2022-10-29T03:11:18;2.35;;;1.90;;
57778;SDS011;43608;49.486;9.640;2022-10-29T03:11:49;2.28;;;1.90;;
57778;SDS011;43608;49.486;9.640;2022-10-29T03:12:19;2.55;;;1.92;;
57778;SDS011;43608;49.486;9.640;2022-10-29T03:12:49;2.42;;;1.90;;
57778;SDS011;43608;49.486;9.640;2022-10-29T03:13:20;2.15;;;1.80;;
57778;SDS011;43608;49.486;9.640;2022-10-29T03:13:50;2.63;;;1.90;;
57778;SDS011;43608;49.486;9.640;2022-10-29T03:14:20;3.08;;;1.80;;
57778;SDS011;43608;49.486;9.640;2022-10-29T03:14:51;2.42;;;1.80;;
57778;SDS011;43608;49.486;9.640;2022-10-29T03:15:21;2.20;;;1.70;;
57778;SDS011;43608;49.486;9.640;2022-10-29T03:15:52;2.80;;;1.80;;
57778;SDS011;43608;49.486;9.640;2022-10-29T03:16:22;2.63;;;1.92;;
57778;SDS011;43608;49.486;9.640;2022-10-29T03:16:52;2.88;;;1.92;;
57778;SDS011;43608;49.486;9.640;2022-10-29T03:17:23;2.70;;;2.00;;
57778;SDS011;43608;49.486;9.640;2022-10-29T03:17:53;1.85;;;1.73;;
57778;SDS011;43608;49.486;9.640;2022-10-29T03:18:24;2.83;;;1.77;;
57778;SDS011;43608;49.486;9.640;2022-10-29T03:18:54;1.95;;;1.73;;
57778;SDS011;43608;49.486;9.640;2022-10-29T03:19:24;2.45;;;1.90;;
57778;SDS011;43608;49.486;9.640;2022-10-29T03:19:55;2.53;;;2.05;;
57778;SDS011;43608;49.486;9.640;2022-10-29T03:20:25;2.47;;;1.90;;
57778;SDS011;43608;49.486;9.640;2022-10-29T03:20:55;3.50;;;1.98;;
57778;SDS011;43608;49.486;9.640;2022-10-29T03:21:26;3.25;;;2.00;;
57778;SDS011;43608;49.486;9.640;2022-10-29T03:21:56;2.03;;;1.70;;
57778;SDS011;43608;49.486;9.640;2022-10-29T03:22:26;2.55;;;1.85;;
57778;SDS011;43608;49.486;9.640;2022-10-29T03:22:57;3.13;;;1.83;;
57778;SDS011;43608;49.486;9.640;2022-10-29T03:23:27;2.55;;;2.00;;
57778;SDS011;43608;49.486;9.640;2022-10-29T03:23:57;2.30;;;1.80;;
57778;SDS011;43608;49.486;9.640;2022-10-29T03:24:28;2.63;;;2.08;;
57778;SDS011;43608;49.486;9.640;2022-10-29T03:24:58;2.50;;;1.90;;
57778;SDS011;43608;49.486;9.640;2022-10-29T03:25:29;3.05;;;2.08;;
57778;SDS011;43608;49.486;9.640;2022-10-29T03:25:59;2.75;;;1.80;;
57778;SDS011;43608;49.486;9.640;2022-10-29T03:26:30;2.50;;;1.90;;
57778;SDS011;43608;49.486;9.640;2022-10-29T03:27:00;2.45;;;1.80;;
57778;SDS011;43608;49.486;9.640;2022-10-29T03:27:30;2.80;;;2.00;;
57778;SDS011;43608;49.486;9.640;2022-10-29T03:28:01;2.97;;;2.10;;
57778;SDS011;43608;49.486;9.640;2022-10-29T03:28:31;2.45;;;1.70;;
57778;SDS011;43608;49.486;9.640;2022-10-29T03:29:01;1.75;;;1.65;;
57778;SDS011;43608;49.486;9.640;2022-10-29T03:29:32;2.63;;;1.90;;
57778;SDS011;43608;49.486;9.640;2022-10-29T03:30:02;2.58;;;1.92;;
57778;SDS011;43608;49.486;9.640;2022-10-29T03:30:33;2.25;;;1.80;;
57778;SDS011;43608;49.486;9.640;2022-10-29T03:31:03;2.60;;;2.00;;
57778;SDS011;43608;49.486;9.640;2022-10-29T03:31:34;2.40;;;1.88;;
57778;SDS011;43608;49.486;9.640;2022-10-29T03:32:04;2.65;;;1.90;;
57778;SDS011;43608;49.486;9.640;2022-10-29T03:32:38;2.00;;;1.80;;
57778;SDS011;43608;49.486;9.640;2022-10-29T03:33:09;2.70;;;1.90;;
57778;SDS011;43608;49.486;9.640;2022-10-29T03:33:40;2.22;;;1.83;;
57778;SDS011;43608;49.486;9.640;2022-10-29T03:34:10;2.03;;;1.80;;
57778;SDS011;43608;49.486;9.640;2022-10-29T03:34:40;2.17;;;1.80;;
57778;SDS011;43608;49.486;9.640;2022-10-29T03:35:11;3.17;;;1.90;;
57778;SDS011;43608;49.486;9.640;2022-10-29T03:35:43;3.03;;;2.00;;
57778;SDS011;43608;49.486;9.640;2022-10-29T03:36:14;1.70;;;1.60;;
57778;SDS011;43608;49.486;9.640;2022-10-29T03:36:44;1.85;;;1.60;;
57778;SDS011;43608;49.486;9.640;2022-10-29T03:37:14;3.25;;;2.00;;
57778;SDS011;43608;49.486;9.640;2022-10-29T03:37:47;2.38;;;1.83;;
57778;SDS011;43608;49.486;9.640;2022-10-29T03:38:19;2.40;;;1.90;;
57778;SDS011;43608;49.486;9.640;2022-10-29T03:38:49;4.03;;;2.00;;
57778;SDS011;43608;49.486;9.640;2022-10-29T03:39:20;2.50;;;1.80;;
57778;SDS011;43608;49.486;9.640;2022-10-29T03:39:50;3.72;;;1.95;;
57778;SDS011;43608;49.486;9.640;2022-10-29T03:40:21;3.03;;;2.00;;
57778;SDS011;43608;49.486;9.640;2022-10-29T03:40:51;3.55;;;2.08;;
57778;SDS011;43608;49.486;9.640;2022-10-29T03:41:22;2.30;;;1.80;;
57778;SDS011;43608;49.486;9.640;2022-10-29T03:41:52;3.30;;;1.88;;
57778;SDS011;43608;49.486;9.640;2022-10-29T03:42:22;3.05;;;1.95;;
57778;SDS011;43608;49.486;9.640;2022-10-29T03:42:53;1.90;;;1.70;;
57778;SDS011;43608;49.486;9.640;2022-10-29T03:43:23;2.33;;;1.95;;
57778;SDS011;43608;49.486;9.640;2022-10-29T03:43:54;3.65;;;2.00;;
57778;SDS011;43608;49.486;9.640;2022-10-29T03:44:24;4.32;;;2.00;;
57778;SDS011;43608;49.486;9.640;2022-10-29T03:44:54;3.00;;;1.73;;
57778;SDS011;43608;49.486;9.640;2022-10-29T03:45:25;2.05;;;1.73;;
57778;SDS011;43608;49.486;9.640;2022-10-29T03:45:56;2.15;;;1.77;;